sensor_id;sensor_type;location;lat;lon;timestamp;P1;durP1;ratioP1;P2;durP2;ratioP2
18021;SDS011;9136;48.822;7.966;2023-03-08T00:00:20;20.17;;;19.17;;
18021;SDS011;9136;48.822;7.966;2023-03-08T00:03:10;19.13;;;18.23;;
18021;SDS011;9136;48.822;7.966;2023-03-08T00:06:02;17.77;;;16.97;;
18021;SDS011;9136;48.822;7.966;2023-03-08T00:08:53;20.00;;;19.10;;
18021;SDS011;9136;48.822;7.966;2023-03-08T00:11:43;17.90;;;17.10;;
18021;SDS011;9136;48.822;7.966;2023-03-08T00:14:31;18.87;;;18.07;;
18021;SDS011;9136;48.822;7.966;2023-03-08T00:17:18;19.57;;;18.63;;
18021;SDS011;9136;48.822;7.966;2023-03-08T00:20:13;18.90;;;18.00;;
18021;SDS011;9136;48.822;7.966;2023-03-08T00:23:01;19.20;;;18.30;;
18021;SDS011;9136;48.822;7.966;2023-03-08T00:25:50;19.83;;;18.93;;
18021;SDS011;9136;48.822;7.966;2023-03-08T00:28:40;17.20;;;16.40;;
18021;SDS011;9136;48.822;7.966;2023-03-08T00:31:28;18.83;;;18.03;;
18021;SDS011;9136;48.822;7.966;2023-03-08T00:34:16;17.63;;;16.83;;
18021;SDS011;9136;48.822;7.966;2023-03-08T00:37:04;18.47;;;17.60;;
18021;SDS011;9136;48.822;7.966;2023-03-08T00:39:52;18.07;;;17.27;;
18021;SDS011;9136;48.822;7.966;2023-03-08T00:42:40;17.37;;;16.63;;
18021;SDS011;9136;48.822;7.966;2023-03-08T00:45:30;17.50;;;16.73;;
18021;SDS011;9136;48.822;7.966;2023-03-08T00:48:17;18.23;;;17.33;;
18021;SDS011;9136;48.822;7.966;2023-03-08T00:51:05;20.17;;;19.27;;
18021;SDS011;9136;48.822;7.966;2023-03-08T00:53:53;17.00;;;16.30;;
18021;SDS011;9136;48.822;7.966;2023-03-08T00:56:41;19.27;;;18.43;;
18021;SDS011;9136;48.822;7.966;2023-03-08T00:59:29;20.27;;;19.37;;
18021;SDS011;9136;48.822;7.966;2023-03-08T01:02:18;19.03;;;18.13;;
18021;SDS011;9136;48.822;7.966;2023-03-08T01:05:06;18.23;;;17.43;;
18021;SDS011;9136;48.822;7.966;2023-03-08T01:07:55;19.37;;;18.47;;
18021;SDS011;9136;48.822;7.966;2023-03-08T01:10:45;21.00;;;19.97;;
18021;SDS011;9136;48.822;7.966;2023-03-08T01:13:34;18.60;;;17.80;;
18021;SDS011;9136;48.822;7.966;2023-03-08T01:16:23;19.33;;;18.53;;
18021;SDS011;9136;48.822;7.966;2023-03-08T01:19:14;19.17;;;18.37;;
18021;SDS011;9136;48.822;7.966;2023-03-08T01:22:02;19.03;;;18.13;;
18021;SDS011;9136;48.822;7.966;2023-03-08T01:24:50;20.37;;;19.47;;
18021;SDS011;9136;48.822;7.966;2023-03-08T01:27:38;20.03;;;19.13;;
18021;SDS011;9136;48.822;7.966;2023-03-08T01:30:26;20.00;;;19.10;;
18021;SDS011;9136;48.822;7.966;2023-03-08T01:33:14;20.23;;;19.33;;
18021;SDS011;9136;48.822;7.966;2023-03-08T01:36:04;18.27;;;17.37;;
18021;SDS011;9136;48.822;7.966;2023-03-08T01:38:53;21.53;;;20.53;;
18021;SDS011;9136;48.822;7.966;2023-03-08T01:41:41;19.37;;;18.47;;
18021;SDS011;9136;48.822;7.966;2023-03-08T01:44:47;19.20;;;18.40;;
18021;SDS011;9136;48.822;7.966;2023-03-08T01:47:35;17.63;;;16.83;;
18021;SDS011;9136;48.822;7.966;2023-03-08T01:50:23;19.03;;;18.23;;
18021;SDS011;9136;48.822;7.966;2023-03-08T01:53:13;21.30;;;20.30;;
18021;SDS011;9136;48.822;7.966;2023-03-08T01:56:01;24.07;;;21.37;;
18021;SDS011;9136;48.822;7.966;2023-03-08T01:58:49;20.20;;;19.30;;
18021;SDS011;9136;48.822;7.966;2023-03-08T02:01:38;19.43;;;18.63;;
18021;SDS011;9136;48.822;7.966;2023-03-08T02:04:26;19.70;;;18.73;;
18021;SDS011;9136;48.822;7.966;2023-03-08T02:07:16;17.50;;;16.70;;
18021;SDS011;9136;48.822;7.966;2023-03-08T02:10:07;21.13;;;20.13;;
18021;SDS011;9136;48.822;7.966;2023-03-08T02:12:56;18.73;;;17.93;;
18021;SDS011;9136;48.822;7.966;2023-03-08T02:15:44;17.37;;;16.57;;
18021;SDS011;9136;48.822;7.966;2023-03-08T02:18:32;18.00;;;17.20;;
18021;SDS011;9136;48.822;7.966;2023-03-08T02:21:19;19.37;;;18.57;;
18021;SDS011;9136;48.822;7.966;2023-03-08T02:24:17;20.57;;;19.47;;
18021;SDS011;9136;48.822;7.966;2023-03-08T02:27:07;16.83;;;16.03;;
18021;SDS011;9136;48.822;7.966;2023-03-08T02:29:58;21.07;;;20.07;;
18021;SDS011;9136;48.822;7.966;2023-03-08T02:32:48;19.50;;;18.60;;
18021;SDS011;9136;48.822;7.966;2023-03-08T02:35:36;20.83;;;19.87;;
18021;SDS011;9136;48.822;7.966;2023-03-08T02:38:27;18.43;;;17.63;;
18021;SDS011;9136;48.822;7.966;2023-03-08T02:41:17;21.00;;;20.10;;
18021;SDS011;9136;48.822;7.966;2023-03-08T02:44:05;21.07;;;20.17;;
18021;SDS011;9136;48.822;7.966;2023-03-08T02:46:53;20.20;;;19.30;;
18021;SDS011;9136;48.822;7.966;2023-03-08T02:49:40;22.30;;;21.10;;
18021;SDS011;9136;48.822;7.966;2023-03-08T02:52:28;20.53;;;19.63;;
18021;SDS011;9136;48.822;7.966;2023-03-08T02:55:16;15.40;;;14.70;;
18021;SDS011;9136;48.822;7.966;2023-03-08T02:58:05;21.07;;;20.13;;
18021;SDS011;9136;48.822;7.966;2023-03-08T03:00:55;20.93;;;20.00;;
18021;SDS011;9136;48.822;7.966;2023-03-08T03:03:43;19.77;;;18.87;;
18021;SDS011;9136;48.822;7.966;2023-03-08T03:06:31;20.17;;;19.27;;
18021;SDS011;9136;48.822;7.966;2023-03-08T03:09:18;17.57;;;16.80;;
18021;SDS011;9136;48.822;7.966;2023-03-08T03:12:06;18.50;;;17.60;;
18021;SDS011;9136;48.822;7.966;2023-03-08T03:14:56;21.80;;;20.70;;
18021;SDS011;9136;48.822;7.966;2023-03-08T03:17:44;19.33;;;18.50;;
18021;SDS011;9136;48.822;7.966;2023-03-08T03:20:32;20.90;;;20.00;;
18021;SDS011;9136;48.822;7.966;2023-03-08T03:23:20;17.07;;;16.37;;
18021;SDS011;9136;48.822;7.966;2023-03-08T03:26:08;20.87;;;19.87;;
18021;SDS011;9136;48.822;7.966;2023-03-08T03:28:58;21.33;;;20.43;;
18021;SDS011;9136;48.822;7.966;2023-03-08T03:31:47;17.87;;;17.07;;
18021;SDS011;9136;48.822;7.966;2023-03-08T03:34:35;21.20;;;20.30;;
18021;SDS011;9136;48.822;7.966;2023-03-08T03:37:23;19.23;;;18.40;;
18021;SDS011;9136;48.822;7.966;2023-03-08T03:40:11;20.10;;;19.10;;
18021;SDS011;9136;48.822;7.966;2023-03-08T03:42:59;21.97;;;20.97;;
18021;SDS011;9136;48.822;7.966;2023-03-08T03:45:53;19.63;;;18.77;;
18021;SDS011;9136;48.822;7.966;2023-03-08T03:48:43;19.50;;;18.60;;
18021;SDS011;9136;48.822;7.966;2023-03-08T03:51:31;18.47;;;17.67;;
18021;SDS011;9136;48.822;7.966;2023-03-08T03:54:18;20.03;;;19.13;;
18021;SDS011;9136;48.822;7.966;2023-03-08T03:57:06;19.33;;;18.43;;
18021;SDS011;9136;48.822;7.966;2023-03-08T03:59:54;19.47;;;18.57;;
18021;SDS011;9136;48.822;7.966;2023-03-08T04:02:42;18.53;;;17.73;;
18021;SDS011;9136;48.822;7.966;2023-03-08T04:05:31;19.37;;;18.53;;
18021;SDS011;9136;48.822;7.966;2023-03-08T04:08:19;19.97;;;18.97;;
18021;SDS011;9136;48.822;7.966;2023-03-08T04:11:07;21.30;;;20.30;;
18021;SDS011;9136;48.822;7.966;2023-03-08T04:13:55;19.87;;;18.97;;
18021;SDS011;9136;48.822;7.966;2023-03-08T04:16:43;17.60;;;16.80;;
18021;SDS011;9136;48.822;7.966;2023-03-08T04:19:31;22.13;;;21.10;;
18021;SDS011;9136;48.822;7.966;2023-03-08T04:22:21;19.17;;;18.37;;
18021;SDS011;9136;48.822;7.966;2023-03-08T04:25:09;20.43;;;19.23;;
18021;SDS011;9136;48.822;7.966;2023-03-08T04:27:56;18.67;;;17.83;;
18021;SDS011;9136;48.822;7.966;2023-03-08T04:30:44;21.33;;;20.33;;
18021;SDS011;9136;48.822;7.966;2023-03-08T04:33:32;21.80;;;20.80;;
18021;SDS011;9136;48.822;7.966;2023-03-08T04:36:20;19.23;;;18.43;;
18021;SDS011;9136;48.822;7.966;2023-03-08T04:39:09;18.50;;;17.70;;
18021;SDS011;9136;48.822;7.966;2023-03-08T04:41:57;18.17;;;17.37;;
18021;SDS011;9136;48.822;7.966;2023-03-08T04:44:45;19.93;;;18.77;;
18021;SDS011;9136;48.822;7.966;2023-03-08T04:47:33;19.47;;;18.57;;
18021;SDS011;9136;48.822;7.966;2023-03-08T04:50:20;22.10;;;21.10;;
18021;SDS011;9136;48.822;7.966;2023-03-08T04:53:08;22.03;;;21.03;;
18021;SDS011;9136;48.822;7.966;2023-03-08T04:55:58;19.97;;;19.07;;
18021;SDS011;9136;48.822;7.966;2023-03-08T04:58:46;21.40;;;20.40;;
18021;SDS011;9136;48.822;7.966;2023-03-08T05:01:34;20.67;;;19.73;;
18021;SDS011;9136;48.822;7.966;2023-03-08T05:04:22;23.10;;;22.10;;
18021;SDS011;9136;48.822;7.966;2023-03-08T05:07:09;20.57;;;19.57;;
18021;SDS011;9136;48.822;7.966;2023-03-08T05:09:57;19.30;;;18.50;;
18021;SDS011;9136;48.822;7.966;2023-03-08T05:12:46;20.90;;;19.93;;
18021;SDS011;9136;48.822;7.966;2023-03-08T05:15:34;18.53;;;17.73;;
18021;SDS011;9136;48.822;7.966;2023-03-08T05:18:22;20.97;;;20.07;;
18021;SDS011;9136;48.822;7.966;2023-03-08T05:21:10;18.87;;;18.07;;
18021;SDS011;9136;48.822;7.966;2023-03-08T05:23:59;19.97;;;19.07;;
18021;SDS011;9136;48.822;7.966;2023-03-08T05:26:47;20.73;;;19.80;;
18021;SDS011;9136;48.822;7.966;2023-03-08T05:29:36;19.60;;;18.70;;
18021;SDS011;9136;48.822;7.966;2023-03-08T05:32:24;20.87;;;19.87;;
18021;SDS011;9136;48.822;7.966;2023-03-08T05:35:11;20.30;;;19.40;;
18021;SDS011;9136;48.822;7.966;2023-03-08T05:38:00;21.07;;;20.17;;
18021;SDS011;9136;48.822;7.966;2023-03-08T05:40:47;18.83;;;18.03;;
18021;SDS011;9136;48.822;7.966;2023-03-08T05:43:35;21.57;;;20.57;;
18021;SDS011;9136;48.822;7.966;2023-03-08T05:46:24;19.27;;;18.37;;
18021;SDS011;9136;48.822;7.966;2023-03-08T05:49:12;22.03;;;20.93;;
18021;SDS011;9136;48.822;7.966;2023-03-08T05:52:00;20.97;;;20.03;;
18021;SDS011;9136;48.822;7.966;2023-03-08T05:54:48;19.90;;;19.00;;
18021;SDS011;9136;48.822;7.966;2023-03-08T05:57:35;22.13;;;21.03;;
18021;SDS011;9136;48.822;7.966;2023-03-08T06:00:23;21.43;;;20.47;;
18021;SDS011;9136;48.822;7.966;2023-03-08T06:03:13;19.50;;;18.67;;
18021;SDS011;9136;48.822;7.966;2023-03-08T06:06:01;21.83;;;20.73;;
18021;SDS011;9136;48.822;7.966;2023-03-08T06:08:50;18.70;;;17.90;;
18021;SDS011;9136;48.822;7.966;2023-03-08T06:11:38;20.13;;;19.23;;
18021;SDS011;9136;48.822;7.966;2023-03-08T06:14:26;20.07;;;18.97;;
18021;SDS011;9136;48.822;7.966;2023-03-08T06:17:14;22.00;;;20.90;;
18021;SDS011;9136;48.822;7.966;2023-03-08T06:20:04;22.03;;;21.03;;
18021;SDS011;9136;48.822;7.966;2023-03-08T06:22:52;21.50;;;20.50;;
18021;SDS011;9136;48.822;7.966;2023-03-08T06:25:41;18.97;;;18.07;;
18021;SDS011;9136;48.822;7.966;2023-03-08T06:28:29;22.03;;;20.93;;
18021;SDS011;9136;48.822;7.966;2023-03-08T06:31:18;19.03;;;18.13;;
18021;SDS011;9136;48.822;7.966;2023-03-08T06:34:06;21.27;;;20.27;;
18021;SDS011;9136;48.822;7.966;2023-03-08T06:36:56;22.50;;;21.40;;
18021;SDS011;9136;48.822;7.966;2023-03-08T06:39:45;22.77;;;21.77;;
18021;SDS011;9136;48.822;7.966;2023-03-08T06:42:33;21.53;;;20.53;;
18021;SDS011;9136;48.822;7.966;2023-03-08T06:45:20;22.83;;;21.43;;
18021;SDS011;9136;48.822;7.966;2023-03-08T06:48:08;23.07;;;22.07;;
18021;SDS011;9136;48.822;7.966;2023-03-08T06:50:56;20.57;;;19.67;;
18021;SDS011;9136;48.822;7.966;2023-03-08T06:53:46;22.83;;;21.83;;
18021;SDS011;9136;48.822;7.966;2023-03-08T06:56:34;20.20;;;19.30;;
18021;SDS011;9136;48.822;7.966;2023-03-08T06:59:22;20.80;;;19.73;;
18021;SDS011;9136;48.822;7.966;2023-03-08T07:02:10;20.60;;;19.70;;
18021;SDS011;9136;48.822;7.966;2023-03-08T07:04:58;18.97;;;18.17;;
18021;SDS011;9136;48.822;7.966;2023-03-08T07:07:46;20.00;;;19.10;;
18021;SDS011;9136;48.822;7.966;2023-03-08T07:10:35;22.50;;;21.50;;
18021;SDS011;9136;48.822;7.966;2023-03-08T07:13:23;18.87;;;18.07;;
18021;SDS011;9136;48.822;7.966;2023-03-08T07:16:11;21.27;;;20.33;;
18021;SDS011;9136;48.822;7.966;2023-03-08T07:19:00;20.00;;;19.00;;
18021;SDS011;9136;48.822;7.966;2023-03-08T07:21:48;21.17;;;20.27;;
18021;SDS011;9136;48.822;7.966;2023-03-08T07:24:36;20.27;;;19.37;;
18021;SDS011;9136;48.822;7.966;2023-03-08T07:27:26;24.63;;;23.53;;
18021;SDS011;9136;48.822;7.966;2023-03-08T07:30:14;22.37;;;21.37;;
18021;SDS011;9136;48.822;7.966;2023-03-08T07:33:03;23.07;;;22.07;;
18021;SDS011;9136;48.822;7.966;2023-03-08T07:35:50;24.57;;;23.13;;
18021;SDS011;9136;48.822;7.966;2023-03-08T07:38:38;24.10;;;23.00;;
18021;SDS011;9136;48.822;7.966;2023-03-08T07:41:27;24.80;;;23.50;;
18021;SDS011;9136;48.822;7.966;2023-03-08T07:44:18;19.20;;;18.40;;
18021;SDS011;9136;48.822;7.966;2023-03-08T07:47:05;21.10;;;20.20;;
18021;SDS011;9136;48.822;7.966;2023-03-08T07:49:55;19.70;;;18.83;;
18021;SDS011;9136;48.822;7.966;2023-03-08T07:52:43;21.27;;;20.27;;
18021;SDS011;9136;48.822;7.966;2023-03-08T07:55:31;20.67;;;19.67;;
18021;SDS011;9136;48.822;7.966;2023-03-08T07:58:19;22.63;;;21.33;;
18021;SDS011;9136;48.822;7.966;2023-03-08T08:01:09;20.37;;;19.47;;
18021;SDS011;9136;48.822;7.966;2023-03-08T08:03:59;21.63;;;20.67;;
18021;SDS011;9136;48.822;7.966;2023-03-08T08:06:47;19.23;;;18.33;;
18021;SDS011;9136;48.822;7.966;2023-03-08T08:09:35;21.57;;;20.47;;
18021;SDS011;9136;48.822;7.966;2023-03-08T08:12:23;23.87;;;22.53;;
18021;SDS011;9136;48.822;7.966;2023-03-08T08:15:11;20.37;;;19.47;;
18021;SDS011;9136;48.822;7.966;2023-03-08T08:18:00;21.57;;;20.50;;
18021;SDS011;9136;48.822;7.966;2023-03-08T08:20:49;23.17;;;22.07;;
18021;SDS011;9136;48.822;7.966;2023-03-08T08:23:36;23.33;;;22.13;;
18021;SDS011;9136;48.822;7.966;2023-03-08T08:26:24;22.87;;;21.80;;
18021;SDS011;9136;48.822;7.966;2023-03-08T08:29:12;22.20;;;20.20;;
18021;SDS011;9136;48.822;7.966;2023-03-08T08:32:01;22.23;;;21.23;;
18021;SDS011;9136;48.822;7.966;2023-03-08T08:34:50;22.10;;;20.87;;
18021;SDS011;9136;48.822;7.966;2023-03-08T08:37:38;21.67;;;20.67;;
18021;SDS011;9136;48.822;7.966;2023-03-08T08:40:25;23.97;;;22.77;;
18021;SDS011;9136;48.822;7.966;2023-03-08T08:43:13;19.87;;;18.97;;
18021;SDS011;9136;48.822;7.966;2023-03-08T08:46:02;19.27;;;18.40;;
18021;SDS011;9136;48.822;7.966;2023-03-08T08:48:51;19.87;;;18.87;;
18021;SDS011;9136;48.822;7.966;2023-03-08T08:51:40;21.67;;;20.67;;
18021;SDS011;9136;48.822;7.966;2023-03-08T08:54:28;25.30;;;24.10;;
18021;SDS011;9136;48.822;7.966;2023-03-08T08:57:15;20.00;;;19.10;;
18021;SDS011;9136;48.822;7.966;2023-03-08T09:00:04;21.93;;;20.93;;
18021;SDS011;9136;48.822;7.966;2023-03-08T09:02:54;19.53;;;18.53;;
18021;SDS011;9136;48.822;7.966;2023-03-08T09:05:43;20.10;;;19.20;;
18021;SDS011;9136;48.822;7.966;2023-03-08T09:08:33;22.37;;;21.37;;
18021;SDS011;9136;48.822;7.966;2023-03-08T09:11:21;21.57;;;20.57;;
18021;SDS011;9136;48.822;7.966;2023-03-08T09:14:10;22.87;;;21.87;;
18021;SDS011;9136;48.822;7.966;2023-03-08T09:16:57;20.40;;;19.50;;
18021;SDS011;9136;48.822;7.966;2023-03-08T09:19:45;20.53;;;19.63;;
18021;SDS011;9136;48.822;7.966;2023-03-08T09:22:33;21.77;;;20.77;;
18021;SDS011;9136;48.822;7.966;2023-03-08T09:25:23;21.20;;;20.20;;
18021;SDS011;9136;48.822;7.966;2023-03-08T09:28:10;17.17;;;16.37;;
18021;SDS011;9136;48.822;7.966;2023-03-08T09:30:58;21.47;;;20.33;;
18021;SDS011;9136;48.822;7.966;2023-03-08T09:33:48;22.73;;;21.73;;
18021;SDS011;9136;48.822;7.966;2023-03-08T09:36:38;20.47;;;19.53;;
18021;SDS011;9136;48.822;7.966;2023-03-08T09:39:26;22.33;;;21.30;;
18021;SDS011;9136;48.822;7.966;2023-03-08T09:42:17;20.97;;;20.07;;
18021;SDS011;9136;48.822;7.966;2023-03-08T09:45:14;22.90;;;21.90;;
18021;SDS011;9136;48.822;7.966;2023-03-08T09:48:07;22.23;;;21.23;;
18021;SDS011;9136;48.822;7.966;2023-03-08T09:51:00;20.97;;;20.07;;
18021;SDS011;9136;48.822;7.966;2023-03-08T09:53:57;22.30;;;21.30;;
18021;SDS011;9136;48.822;7.966;2023-03-08T09:56:49;22.17;;;21.17;;
18021;SDS011;9136;48.822;7.966;2023-03-08T09:59:40;21.87;;;20.87;;
18021;SDS011;9136;48.822;7.966;2023-03-08T10:02:35;20.10;;;19.20;;
18021;SDS011;9136;48.822;7.966;2023-03-08T10:05:32;20.40;;;19.40;;
18021;SDS011;9136;48.822;7.966;2023-03-08T10:08:25;22.27;;;21.23;;
18021;SDS011;9136;48.822;7.966;2023-03-08T10:11:19;21.90;;;20.90;;
18021;SDS011;9136;48.822;7.966;2023-03-08T10:14:17;19.70;;;18.77;;
18021;SDS011;9136;48.822;7.966;2023-03-08T10:17:11;18.93;;;18.13;;
18021;SDS011;9136;48.822;7.966;2023-03-08T10:20:04;20.77;;;19.87;;
18021;SDS011;9136;48.822;7.966;2023-03-08T10:22:59;21.27;;;20.27;;
18021;SDS011;9136;48.822;7.966;2023-03-08T10:25:52;20.70;;;19.80;;
18021;SDS011;9136;48.822;7.966;2023-03-08T10:28:40;17.47;;;16.67;;
18021;SDS011;9136;48.822;7.966;2023-03-08T10:31:30;17.87;;;17.07;;
18021;SDS011;9136;48.822;7.966;2023-03-08T10:34:21;17.10;;;16.30;;
18021;SDS011;9136;48.822;7.966;2023-03-08T10:37:15;18.13;;;17.33;;
18021;SDS011;9136;48.822;7.966;2023-03-08T10:40:08;18.57;;;17.67;;
18021;SDS011;9136;48.822;7.966;2023-03-08T10:43:02;18.40;;;17.60;;
18021;SDS011;9136;48.822;7.966;2023-03-08T10:45:58;20.50;;;19.43;;
18021;SDS011;9136;48.822;7.966;2023-03-08T10:48:48;18.07;;;17.27;;
18021;SDS011;9136;48.822;7.966;2023-03-08T10:51:38;19.03;;;18.13;;
18021;SDS011;9136;48.822;7.966;2023-03-08T10:54:27;17.47;;;16.70;;
18021;SDS011;9136;48.822;7.966;2023-03-08T10:57:16;20.07;;;19.17;;
18021;SDS011;9136;48.822;7.966;2023-03-08T11:00:28;18.30;;;17.50;;
18021;SDS011;9136;48.822;7.966;2023-03-08T11:03:20;18.13;;;17.33;;
18021;SDS011;9136;48.822;7.966;2023-03-08T11:06:12;18.57;;;17.20;;
18021;SDS011;9136;48.822;7.966;2023-03-08T11:09:03;19.70;;;17.70;;
18021;SDS011;9136;48.822;7.966;2023-03-08T11:12:08;20.50;;;19.47;;
18021;SDS011;9136;48.822;7.966;2023-03-08T11:15:11;18.67;;;17.77;;
18021;SDS011;9136;48.822;7.966;2023-03-08T11:18:02;18.30;;;17.50;;
18021;SDS011;9136;48.822;7.966;2023-03-08T11:20:54;19.03;;;18.13;;
18021;SDS011;9136;48.822;7.966;2023-03-08T11:23:46;17.97;;;17.17;;
18021;SDS011;9136;48.822;7.966;2023-03-08T11:26:46;15.53;;;14.83;;
18021;SDS011;9136;48.822;7.966;2023-03-08T11:29:49;18.10;;;17.30;;
18021;SDS011;9136;48.822;7.966;2023-03-08T11:32:50;17.30;;;16.50;;
18021;SDS011;9136;48.822;7.966;2023-03-08T11:35:52;16.33;;;15.63;;
18021;SDS011;9136;48.822;7.966;2023-03-08T11:38:46;17.47;;;16.67;;
18021;SDS011;9136;48.822;7.966;2023-03-08T11:41:47;17.13;;;16.40;;
18021;SDS011;9136;48.822;7.966;2023-03-08T11:44:44;17.10;;;16.40;;
18021;SDS011;9136;48.822;7.966;2023-03-08T11:51:05;17.07;;;16.37;;
18021;SDS011;9136;48.822;7.966;2023-03-08T11:54:01;15.97;;;15.27;;
18021;SDS011;9136;48.822;7.966;2023-03-08T11:56:57;16.57;;;15.87;;
18021;SDS011;9136;48.822;7.966;2023-03-08T11:59:49;17.17;;;16.47;;
18021;SDS011;9136;48.822;7.966;2023-03-08T12:02:44;16.40;;;15.70;;
18021;SDS011;9136;48.822;7.966;2023-03-08T12:05:34;17.83;;;17.03;;
18021;SDS011;9136;48.822;7.966;2023-03-08T12:08:28;17.60;;;16.80;;
18021;SDS011;9136;48.822;7.966;2023-03-08T12:11:21;15.90;;;15.20;;
18021;SDS011;9136;48.822;7.966;2023-03-08T12:14:15;19.43;;;18.63;;
18021;SDS011;9136;48.822;7.966;2023-03-08T12:17:09;17.00;;;16.30;;
18021;SDS011;9136;48.822;7.966;2023-03-08T12:20:04;17.03;;;16.33;;
18021;SDS011;9136;48.822;7.966;2023-03-08T12:22:55;16.20;;;15.50;;
18021;SDS011;9136;48.822;7.966;2023-03-08T12:25:46;16.47;;;15.77;;
18021;SDS011;9136;48.822;7.966;2023-03-08T12:28:37;17.03;;;16.33;;
18021;SDS011;9136;48.822;7.966;2023-03-08T12:31:32;15.37;;;14.70;;
18021;SDS011;9136;48.822;7.966;2023-03-08T12:34:26;17.67;;;16.87;;
18021;SDS011;9136;48.822;7.966;2023-03-08T12:37:19;16.80;;;16.00;;
18021;SDS011;9136;48.822;7.966;2023-03-08T12:43:26;16.23;;;15.53;;
18021;SDS011;9136;48.822;7.966;2023-03-08T12:46:15;17.23;;;16.50;;
18021;SDS011;9136;48.822;7.966;2023-03-08T12:49:04;16.20;;;15.40;;
18021;SDS011;9136;48.822;7.966;2023-03-08T12:52:06;16.07;;;15.37;;
18021;SDS011;9136;48.822;7.966;2023-03-08T12:55:15;16.47;;;15.77;;
18021;SDS011;9136;48.822;7.966;2023-03-08T12:58:13;18.00;;;17.20;;
18021;SDS011;9136;48.822;7.966;2023-03-08T13:01:04;17.47;;;16.70;;
18021;SDS011;9136;48.822;7.966;2023-03-08T13:03:52;17.27;;;16.53;;
18021;SDS011;9136;48.822;7.966;2023-03-08T13:06:56;15.17;;;14.47;;
18021;SDS011;9136;48.822;7.966;2023-03-08T13:09:58;16.80;;;16.10;;
18021;SDS011;9136;48.822;7.966;2023-03-08T13:12:58;15.17;;;14.57;;
18021;SDS011;9136;48.822;7.966;2023-03-08T13:16:02;19.23;;;18.33;;
18021;SDS011;9136;48.822;7.966;2023-03-08T13:18:59;14.53;;;13.93;;
18021;SDS011;9136;48.822;7.966;2023-03-08T13:21:49;14.20;;;13.60;;
18021;SDS011;9136;48.822;7.966;2023-03-08T13:24:46;15.77;;;15.07;;
18021;SDS011;9136;48.822;7.966;2023-03-08T13:27:39;16.50;;;15.80;;
18021;SDS011;9136;48.822;7.966;2023-03-08T13:30:35;14.93;;;14.33;;
18021;SDS011;9136;48.822;7.966;2023-03-08T13:33:28;15.00;;;14.40;;
18021;SDS011;9136;48.822;7.966;2023-03-08T13:36:18;17.57;;;16.77;;
18021;SDS011;9136;48.822;7.966;2023-03-08T13:39:14;15.07;;;14.47;;
18021;SDS011;9136;48.822;7.966;2023-03-08T13:42:06;17.77;;;16.97;;
18021;SDS011;9136;48.822;7.966;2023-03-08T13:45:05;16.13;;;15.43;;
18021;SDS011;9136;48.822;7.966;2023-03-08T13:47:55;14.57;;;13.97;;
18021;SDS011;9136;48.822;7.966;2023-03-08T13:50:45;18.00;;;17.20;;
18021;SDS011;9136;48.822;7.966;2023-03-08T13:53:35;17.43;;;16.63;;
18021;SDS011;9136;48.822;7.966;2023-03-08T13:56:26;15.67;;;14.97;;
18021;SDS011;9136;48.822;7.966;2023-03-08T13:59:16;16.07;;;15.37;;
18021;SDS011;9136;48.822;7.966;2023-03-08T14:02:13;14.70;;;14.10;;
18021;SDS011;9136;48.822;7.966;2023-03-08T14:05:14;15.57;;;14.87;;
18021;SDS011;9136;48.822;7.966;2023-03-08T14:08:04;15.63;;;14.93;;
18021;SDS011;9136;48.822;7.966;2023-03-08T14:10:54;13.87;;;13.17;;
18021;SDS011;9136;48.822;7.966;2023-03-08T14:13:48;15.87;;;15.17;;
18021;SDS011;9136;48.822;7.966;2023-03-08T14:16:38;17.43;;;16.63;;
18021;SDS011;9136;48.822;7.966;2023-03-08T14:19:28;16.80;;;16.00;;
18021;SDS011;9136;48.822;7.966;2023-03-08T14:22:19;16.43;;;15.73;;
18021;SDS011;9136;48.822;7.966;2023-03-08T14:25:19;17.07;;;16.37;;
18021;SDS011;9136;48.822;7.966;2023-03-08T14:28:20;17.30;;;16.53;;
18021;SDS011;9136;48.822;7.966;2023-03-08T14:31:28;17.33;;;16.53;;
18021;SDS011;9136;48.822;7.966;2023-03-08T14:34:17;17.63;;;16.83;;
18021;SDS011;9136;48.822;7.966;2023-03-08T14:37:11;16.37;;;15.67;;
18021;SDS011;9136;48.822;7.966;2023-03-08T14:40:17;15.50;;;14.80;;
18021;SDS011;9136;48.822;7.966;2023-03-08T14:43:13;16.40;;;15.70;;
18021;SDS011;9136;48.822;7.966;2023-03-08T14:46:03;17.20;;;16.50;;
18021;SDS011;9136;48.822;7.966;2023-03-08T14:48:59;16.30;;;15.60;;
18021;SDS011;9136;48.822;7.966;2023-03-08T14:51:49;14.80;;;14.20;;
18021;SDS011;9136;48.822;7.966;2023-03-08T14:54:37;15.53;;;14.83;;
18021;SDS011;9136;48.822;7.966;2023-03-08T14:57:25;13.93;;;13.33;;
18021;SDS011;9136;48.822;7.966;2023-03-08T15:00:15;14.97;;;14.37;;
18021;SDS011;9136;48.822;7.966;2023-03-08T15:03:04;16.50;;;15.73;;
18021;SDS011;9136;48.822;7.966;2023-03-08T15:05:53;16.30;;;15.60;;
18021;SDS011;9136;48.822;7.966;2023-03-08T15:08:43;14.83;;;14.23;;
18021;SDS011;9136;48.822;7.966;2023-03-08T15:11:31;14.43;;;13.83;;
18021;SDS011;9136;48.822;7.966;2023-03-08T15:14:19;14.17;;;13.57;;
18021;SDS011;9136;48.822;7.966;2023-03-08T15:17:07;15.00;;;14.30;;
18021;SDS011;9136;48.822;7.966;2023-03-08T15:19:55;15.93;;;15.07;;
18021;SDS011;9136;48.822;7.966;2023-03-08T15:22:46;16.57;;;15.87;;
18021;SDS011;9136;48.822;7.966;2023-03-08T15:25:36;15.77;;;15.07;;
18021;SDS011;9136;48.822;7.966;2023-03-08T15:28:25;17.33;;;16.53;;
18021;SDS011;9136;48.822;7.966;2023-03-08T15:31:13;14.43;;;13.83;;
18021;SDS011;9136;48.822;7.966;2023-03-08T15:34:01;18.60;;;17.80;;
18021;SDS011;9136;48.822;7.966;2023-03-08T15:36:49;16.40;;;15.70;;
18021;SDS011;9136;48.822;7.966;2023-03-08T15:39:40;15.83;;;15.13;;
18021;SDS011;9136;48.822;7.966;2023-03-08T15:42:27;13.03;;;12.50;;
18021;SDS011;9136;48.822;7.966;2023-03-08T15:45:16;14.13;;;13.53;;
18021;SDS011;9136;48.822;7.966;2023-03-08T15:48:06;15.53;;;14.83;;
18021;SDS011;9136;48.822;7.966;2023-03-08T15:50:59;13.40;;;12.80;;
18021;SDS011;9136;48.822;7.966;2023-03-08T15:53:47;14.60;;;14.00;;
18021;SDS011;9136;48.822;7.966;2023-03-08T15:56:38;15.17;;;14.57;;
18021;SDS011;9136;48.822;7.966;2023-03-08T15:59:25;15.87;;;15.17;;
18021;SDS011;9136;48.822;7.966;2023-03-08T16:02:14;16.73;;;16.03;;
18021;SDS011;9136;48.822;7.966;2023-03-08T16:05:04;17.13;;;16.43;;
18021;SDS011;9136;48.822;7.966;2023-03-08T16:07:54;15.50;;;14.80;;
18021;SDS011;9136;48.822;7.966;2023-03-08T16:10:42;15.97;;;15.27;;
18021;SDS011;9136;48.822;7.966;2023-03-08T16:13:32;14.10;;;13.47;;
18021;SDS011;9136;48.822;7.966;2023-03-08T16:16:20;15.90;;;15.20;;
18021;SDS011;9136;48.822;7.966;2023-03-08T16:19:08;15.10;;;14.50;;
18021;SDS011;9136;48.822;7.966;2023-03-08T16:21:55;15.60;;;14.90;;
18021;SDS011;9136;48.822;7.966;2023-03-08T16:24:43;14.40;;;13.80;;
18021;SDS011;9136;48.822;7.966;2023-03-08T16:27:31;15.37;;;14.67;;
18021;SDS011;9136;48.822;7.966;2023-03-08T16:30:21;15.43;;;14.77;;
18021;SDS011;9136;48.822;7.966;2023-03-08T16:33:09;15.23;;;14.43;;
18021;SDS011;9136;48.822;7.966;2023-03-08T16:35:58;13.40;;;12.80;;
18021;SDS011;9136;48.822;7.966;2023-03-08T16:38:46;16.47;;;15.77;;
18021;SDS011;9136;48.822;7.966;2023-03-08T16:41:34;13.50;;;12.90;;
18021;SDS011;9136;48.822;7.966;2023-03-08T16:44:23;17.17;;;16.37;;
18021;SDS011;9136;48.822;7.966;2023-03-08T16:47:14;16.00;;;15.30;;
18021;SDS011;9136;48.822;7.966;2023-03-08T16:50:03;14.53;;;13.93;;
18021;SDS011;9136;48.822;7.966;2023-03-08T16:52:52;16.80;;;16.10;;
18021;SDS011;9136;48.822;7.966;2023-03-08T16:55:40;16.10;;;15.40;;